createdAt,value
2019-04-07T00:01:57.334Z,7.30
2019-04-07T00:04:25.926Z,7.20
2019-04-07T00:06:54.516Z,7.20
2019-04-07T00:09:23.225Z,7.20
2019-04-07T00:11:51.952Z,7.20
2019-04-07T00:14:20.674Z,7.20
2019-04-07T00:16:49.518Z,7.10
2019-04-07T00:19:18.242Z,7.20
2019-04-07T00:21:46.867Z,7.20
2019-04-07T00:24:15.376Z,7.20
2019-04-07T00:26:44.718Z,7.10
2019-04-07T00:29:15.525Z,7.10
2019-04-07T00:31:44.023Z,7.20
2019-04-07T00:34:12.632Z,7.20
2019-04-07T00:36:41.097Z,7.20
2019-04-07T00:39:09.559Z,7.30
2019-04-07T00:41:38.681Z,7.30
2019-04-07T00:44:07.201Z,7.30
2019-04-07T00:46:35.710Z,7.30
2019-04-07T00:49:04.148Z,7.30
2019-04-07T00:51:33.250Z,7.30
2019-04-07T00:54:01.968Z,7.30
2019-04-07T00:56:30.430Z,7.30
2019-04-07T00:58:58.893Z,7.30
2019-04-07T01:01:27.407Z,7.40
2019-04-07T01:03:55.933Z,7.40
2019-04-07T01:06:24.399Z,7.40
2019-04-07T01:08:52.838Z,7.30
2019-04-07T01:11:21.609Z,7.30
2019-04-07T01:13:50.566Z,7.20
2019-04-07T01:16:19.878Z,7.10
2019-04-07T01:18:48.396Z,7.10
2019-04-07T01:21:17.056Z,7.10
2019-04-07T01:23:46.093Z,7.10
2019-04-07T01:26:14.604Z,7.10
2019-04-07T01:28:43.075Z,7.20
2019-04-07T01:31:12.033Z,7.20
2019-04-07T01:33:40.916Z,7.20
2019-04-07T01:36:11.137Z,7.10
2019-04-07T01:38:39.659Z,7.20
2019-04-07T01:41:12.589Z,7.20
2019-04-07T01:43:48.504Z,7.20
2019-04-07T01:46:19.133Z,7.20
2019-04-07T01:48:49.416Z,7.20
2019-04-07T01:51:35.533Z,7.20
2019-04-07T01:54:06.383Z,7.20
2019-04-07T01:56:54.683Z,7.20
2019-04-07T01:59:25.346Z,7.20
2019-04-07T02:01:58.148Z,7.20
2019-04-07T02:04:39.979Z,7.20
2019-04-07T02:07:28.290Z,7.10
2019-04-07T02:10:04.478Z,7.20
2019-04-07T02:12:40.320Z,7.20
2019-04-07T02:15:17.344Z,7.10
2019-04-07T02:17:57.044Z,7.20
2019-04-07T02:20:54.245Z,7.10
2019-04-07T02:23:25.023Z,7.10
2019-04-07T02:25:55.188Z,7.10
2019-04-07T02:28:31.137Z,7.10
2019-04-07T02:31:07.916Z,7.20
2019-04-07T02:33:44.387Z,7.20
2019-04-07T02:36:22.709Z,7.20
2019-04-07T02:38:46.265Z,7.20
2019-04-07T02:41:26.001Z,7.20
2019-04-07T02:44:02.851Z,7.20
2019-04-07T02:46:36.595Z,7.30
2019-04-07T02:49:12.906Z,7.30
2019-04-07T02:51:43.536Z,7.30
2019-04-07T02:54:30.293Z,7.30
2019-04-07T02:57:18.956Z,7.40
2019-04-07T03:00:06.226Z,7.20
2019-04-07T03:02:45.689Z,7.20
2019-04-07T03:05:24.316Z,7.30
2019-04-07T03:07:59.942Z,7.20
2019-04-07T03:10:44.805Z,7.20
2019-04-07T03:13:24.448Z,7.20
2019-04-07T03:16:13.090Z,7.10
2019-04-07T03:19:00.179Z,7.00
2019-04-07T03:21:31.072Z,7.00
2019-04-07T03:24:04.066Z,7.00
2019-04-07T03:26:49.945Z,7.00
2019-04-07T03:29:20.272Z,7.00
2019-04-07T03:31:53.594Z,7.10
2019-04-07T03:34:41.282Z,7.00
2019-04-07T03:37:32.431Z,7.00
2019-04-07T03:40:04.765Z,7.10
2019-04-07T03:42:38.536Z,7.20
2019-04-07T03:45:10.126Z,7.20
2019-04-07T03:47:43.707Z,7.10
2019-04-07T03:50:14.965Z,7.10
2019-04-07T03:52:59.867Z,7.10
2019-04-07T03:55:38.671Z,7.20
2019-04-07T03:58:20.907Z,7.10
2019-04-07T04:01:09.865Z,7.10
2019-04-07T04:03:59.215Z,7.10
2019-04-07T04:06:46.022Z,7.10
2019-04-07T04:09:22.261Z,7.10
2019-04-07T04:12:08.511Z,7.20
2019-04-07T04:14:54.977Z,7.20
2019-04-07T04:17:23.493Z,7.20
2019-04-07T04:19:52.018Z,7.20
2019-04-07T04:22:21.044Z,7.20
2019-04-07T04:24:51.527Z,7.20
2019-04-07T04:27:20.401Z,7.10
2019-04-07T04:29:51.906Z,7.10
2019-04-07T04:32:19.521Z,7.10
2019-04-07T04:34:48.021Z,7.10
2019-04-07T04:37:26.802Z,7.10
2019-04-07T04:39:47.502Z,7.10
2019-04-07T04:42:16.216Z,7.20
2019-04-07T04:44:45.636Z,7.10
2019-04-07T04:47:14.160Z,7.10
2019-04-07T04:49:43.457Z,7.20
2019-04-07T04:52:12.043Z,7.20
2019-04-07T04:54:40.795Z,7.20
2019-04-07T04:57:09.480Z,7.20
2019-04-07T04:59:37.948Z,7.10
2019-04-07T05:02:06.392Z,7.20
2019-04-07T05:04:34.831Z,7.30
2019-04-07T05:07:04.106Z,7.20
2019-04-07T05:09:41.104Z,7.30
2019-04-07T05:12:04.775Z,7.20
2019-04-07T05:14:33.355Z,7.30
2019-04-07T05:17:01.797Z,7.30
2019-04-07T05:19:30.241Z,7.30
2019-04-07T05:21:59.150Z,7.30
2019-04-07T05:24:28.228Z,7.30
2019-04-07T05:26:57.272Z,7.30
2019-04-07T05:29:25.897Z,7.30
2019-04-07T05:31:54.342Z,7.30
2019-04-07T05:34:23.087Z,7.30
2019-04-07T05:36:52.184Z,7.20
2019-04-07T05:39:20.780Z,7.30
2019-04-07T05:41:49.342Z,7.20
2019-04-07T05:44:17.913Z,7.30
2019-04-07T05:46:48.137Z,7.30
2019-04-07T05:49:17.738Z,7.20
2019-04-07T05:51:47.130Z,7.30
2019-04-07T05:54:17.356Z,7.20
2019-04-07T05:56:45.951Z,7.20
2019-04-07T05:59:14.781Z,7.30
2019-04-07T06:01:44.577Z,7.20
2019-04-07T06:04:16.871Z,7.30
2019-04-07T06:06:43.258Z,7.30
2019-04-07T06:09:11.709Z,7.30
2019-04-07T06:11:40.211Z,7.30
2019-04-07T06:14:08.717Z,7.30
2019-04-07T06:16:37.779Z,7.30
2019-04-07T06:19:07.995Z,7.30
2019-04-07T06:21:36.646Z,7.30
2019-04-07T06:24:05.212Z,7.40
2019-04-07T06:26:34.155Z,7.30
2019-04-07T06:29:02.708Z,7.40
2019-04-07T06:31:32.153Z,7.30
2019-04-07T06:34:01.401Z,7.30
2019-04-07T06:36:29.950Z,7.40
2019-04-07T06:38:59.352Z,7.40
2019-04-07T06:41:31.233Z,7.40
2019-04-07T06:44:08.724Z,7.40
2019-04-07T06:46:30.533Z,7.40
2019-04-07T06:49:15.912Z,7.40
2019-04-07T06:51:49.001Z,7.40
2019-04-07T06:54:22.334Z,7.40
2019-04-07T06:57:08.534Z,7.50
2019-04-07T06:59:47.136Z,7.50
2019-04-07T07:02:19.616Z,7.50
2019-04-07T07:05:08.348Z,7.50
2019-04-07T07:07:41.422Z,7.60
2019-04-07T07:10:11.711Z,7.50
2019-04-07T07:12:47.295Z,7.60
2019-04-07T07:15:33.775Z,7.60
2019-04-07T07:18:07.910Z,7.60
2019-04-07T07:20:50.499Z,7.60
2019-04-07T07:23:20.717Z,7.60
2019-04-07T07:25:50.514Z,7.70
2019-04-07T07:28:19.468Z,7.70
2019-04-07T07:30:51.797Z,7.70
2019-04-07T07:33:18.180Z,7.80
2019-04-07T07:35:49.113Z,7.70
2019-04-07T07:38:16.900Z,7.70
2019-04-07T07:40:47.711Z,7.80
2019-04-07T07:43:15.967Z,7.80
2019-04-07T07:45:48.055Z,7.80
2019-04-07T07:48:14.658Z,7.90
2019-04-07T07:50:43.646Z,8.00
2019-04-07T07:53:12.597Z,8.10
2019-04-07T07:55:41.274Z,8.10
2019-04-07T07:58:10.500Z,8.20
2019-04-07T08:00:42.098Z,8.20
2019-04-07T08:03:10.199Z,8.20
2019-04-07T08:05:38.804Z,8.30
2019-04-07T08:08:07.271Z,8.30
2019-04-07T08:10:36.346Z,8.30
2019-04-07T08:13:06.834Z,8.50
2019-04-07T08:15:35.074Z,8.50
2019-04-07T08:18:07.038Z,8.60
2019-04-07T08:20:33.929Z,8.70
2019-04-07T08:23:02.607Z,8.60
2019-04-07T08:25:31.760Z,8.70
2019-04-07T08:28:02.201Z,8.70
2019-04-07T08:30:30.662Z,8.70
2019-04-07T08:33:00.431Z,8.90
2019-04-07T08:35:29.803Z,8.90
2019-04-07T08:37:58.525Z,8.90
2019-04-07T08:40:27.425Z,9.00
2019-04-07T08:42:56.126Z,9.10
2019-04-07T08:45:26.754Z,9.00
2019-04-07T08:47:55.429Z,9.10
2019-04-07T08:50:27.666Z,9.20
2019-04-07T08:52:54.111Z,9.20
2019-04-07T08:55:22.632Z,9.30
2019-04-07T08:57:52.033Z,9.40
2019-04-07T09:00:22.399Z,9.40
2019-04-07T09:03:01.814Z,9.40
2019-04-07T09:05:26.710Z,9.50
2019-04-07T09:07:51.892Z,9.50
2019-04-07T09:10:22.094Z,9.50
2019-04-07T09:12:51.000Z,9.60
2019-04-07T09:15:33.832Z,9.60
2019-04-07T09:18:06.996Z,9.70
2019-04-07T09:20:40.904Z,9.80
2019-04-07T09:23:17.675Z,9.80
2019-04-07T09:26:04.092Z,9.80
2019-04-07T09:28:34.294Z,9.90
2019-04-07T09:31:07.500Z,9.80
2019-04-07T09:33:49.949Z,10.00
2019-04-07T09:36:26.512Z,9.90
2019-04-07T09:39:08.735Z,9.90
2019-04-07T09:41:43.147Z,9.90
2019-04-07T09:44:14.339Z,9.90
2019-04-07T09:46:59.587Z,9.90
2019-04-07T09:49:48.451Z,9.90
2019-04-07T09:52:17.883Z,10.00
2019-04-07T09:54:57.334Z,10.10
2019-04-07T09:57:27.580Z,10.10
2019-04-07T10:00:03.783Z,10.00
2019-04-07T10:02:49.708Z,10.10
2019-04-07T10:05:31.940Z,10.10
2019-04-07T10:08:19.106Z,10.00
2019-04-07T10:10:56.011Z,10.10
2019-04-07T10:13:38.548Z,10.10
2019-04-07T10:16:24.031Z,10.00
2019-04-07T10:19:09.954Z,10.00
2019-04-07T10:21:45.923Z,9.80
2019-04-07T10:24:16.921Z,9.80
2019-04-07T10:26:46.295Z,9.80
2019-04-07T10:29:22.998Z,9.80
2019-04-07T10:32:09.223Z,10.00
2019-04-07T10:34:39.337Z,10.00
2019-04-07T10:37:10.162Z,10.10
2019-04-07T10:39:46.336Z,10.30
2019-04-07T10:42:34.646Z,10.30
2019-04-07T10:45:04.949Z,10.40
2019-04-07T10:47:35.815Z,10.60
2019-04-07T10:50:08.499Z,10.70
2019-04-07T10:52:37.780Z,10.90
2019-04-07T10:55:14.233Z,11.10
2019-04-07T10:57:44.420Z,11.20
2019-04-07T11:00:33.441Z,11.10
2019-04-07T11:03:18.626Z,11.10
2019-04-07T11:05:49.226Z,11.50
2019-04-07T11:08:20.191Z,11.80
2019-04-07T11:10:50.801Z,12.00
2019-04-07T11:13:36.968Z,11.60
2019-04-07T11:16:07.152Z,11.60
2019-04-07T11:18:40.322Z,11.60
2019-04-07T11:21:22.716Z,11.50
2019-04-07T11:24:09.061Z,11.40
2019-04-07T11:26:39.728Z,11.50
2019-04-07T11:29:13.354Z,11.50
2019-04-07T11:31:59.409Z,11.70
2019-04-07T11:34:33.139Z,11.90
2019-04-07T11:37:13.257Z,12.00
2019-04-07T11:39:53.371Z,12.00
2019-04-07T11:42:26.654Z,12.20
2019-04-07T11:45:03.097Z,12.00
2019-04-07T11:47:49.393Z,11.90
2019-04-07T11:50:22.334Z,11.90
2019-04-07T11:52:52.693Z,12.00
2019-04-07T11:55:26.787Z,12.10
2019-04-07T11:58:17.728Z,12.20
2019-04-07T12:00:57.145Z,12.20
2019-04-07T12:03:32.786Z,12.30
2019-04-07T12:06:21.070Z,12.00
2019-04-07T12:09:08.521Z,12.10
2019-04-07T12:11:38.703Z,12.30
2019-04-07T12:14:15.004Z,12.40
2019-04-07T12:17:02.327Z,12.50
2019-04-07T12:19:39.833Z,12.60
2019-04-07T12:22:14.142Z,12.80
2019-04-07T12:24:47.996Z,13.00
2019-04-07T12:27:24.247Z,13.00
2019-04-07T12:30:10.022Z,13.10
2019-04-07T12:32:55.222Z,13.00
2019-04-07T12:35:32.566Z,13.00
2019-04-07T12:38:12.232Z,12.80
2019-04-07T12:41:11.413Z,12.60
2019-04-07T12:43:44.559Z,12.50
2019-04-07T12:46:12.589Z,12.80
2019-04-07T12:48:45.221Z,12.70
2019-04-07T12:51:19.893Z,12.70
2019-04-07T12:53:50.099Z,13.00
2019-04-07T12:57:09.339Z,12.80
2019-04-07T12:59:48.880Z,12.90
2019-04-07T13:02:24.030Z,12.90
2019-04-07T13:04:57.272Z,12.80
2019-04-07T13:07:43.806Z,12.70
2019-04-07T13:10:20.618Z,12.70
2019-04-07T13:12:53.629Z,12.70
2019-04-07T13:15:26.016Z,12.50
2019-04-07T13:18:14.298Z,12.20
2019-04-07T13:20:50.400Z,12.20
2019-04-07T13:23:22.225Z,12.10
2019-04-07T13:25:56.653Z,12.10
2019-04-07T13:28:27.210Z,12.10
2019-04-07T13:30:59.854Z,12.00
2019-04-07T13:33:46.796Z,12.00
2019-04-07T13:36:23.552Z,12.10
2019-04-07T13:39:28.209Z,12.00
2019-04-07T13:42:04.015Z,11.90
2019-04-07T13:44:40.894Z,11.90
2019-04-07T13:47:18.605Z,11.80
2019-04-07T13:49:51.489Z,11.70
2019-04-07T13:52:27.915Z,11.70
2019-04-07T13:54:58.976Z,11.80
2019-04-07T13:57:29.479Z,11.70
2019-04-07T14:00:06.366Z,11.60
2019-04-07T14:02:36.599Z,11.70
2019-04-07T14:05:11.282Z,11.60
2019-04-07T14:07:51.802Z,11.50
2019-04-07T14:10:25.611Z,11.60
2019-04-07T14:12:55.874Z,11.60
2019-04-07T14:15:41.113Z,11.50
2019-04-07T14:18:23.051Z,11.50
2019-04-07T14:20:56.217Z,11.40
2019-04-07T14:23:26.352Z,11.40
2019-04-07T14:26:12.496Z,11.40
2019-04-07T14:28:43.972Z,11.40
2019-04-07T14:31:17.521Z,11.50
2019-04-07T14:34:00.011Z,11.50
2019-04-07T14:36:46.710Z,11.50
2019-04-07T14:39:26.016Z,11.60
2019-04-07T14:42:13.130Z,11.50
2019-04-07T14:44:43.343Z,11.50
2019-04-07T14:47:16.515Z,11.60
2019-04-07T14:50:01.962Z,11.60
2019-04-07T14:52:50.141Z,11.60
2019-04-07T14:55:36.786Z,11.50
2019-04-07T14:58:23.203Z,11.60
2019-04-07T15:01:07.965Z,11.50
2019-04-07T15:03:36.341Z,11.60
2019-04-07T15:06:05.454Z,11.60
2019-04-07T15:08:35.644Z,11.50
2019-04-07T15:11:06.136Z,11.40
2019-04-07T15:13:35.288Z,11.20
2019-04-07T15:16:04.048Z,11.20
2019-04-07T15:18:32.532Z,11.20
2019-04-07T15:21:00.974Z,11.30
2019-04-07T15:23:31.842Z,11.30
2019-04-07T15:26:00.192Z,11.40
2019-04-07T15:28:30.678Z,11.40
2019-04-07T15:30:59.018Z,11.40
2019-04-07T15:33:31.467Z,11.40
2019-04-07T15:35:57.805Z,11.50
2019-04-07T15:38:27.314Z,11.40
2019-04-07T15:40:58.616Z,11.50
2019-04-07T15:43:27.819Z,11.50
2019-04-07T15:45:56.849Z,11.60
2019-04-07T15:48:26.210Z,11.70
2019-04-07T15:50:56.200Z,11.70
2019-04-07T15:53:25.582Z,11.70
2019-04-07T15:56:02.217Z,11.70
2019-04-07T15:58:26.804Z,11.70
2019-04-07T16:00:54.864Z,11.70
2019-04-07T16:03:23.446Z,11.80
2019-04-07T16:05:52.367Z,11.70
2019-04-07T16:08:20.899Z,11.70
2019-04-07T16:10:52.062Z,11.60
2019-04-07T16:13:19.635Z,11.50
2019-04-07T16:15:50.982Z,11.40
2019-04-07T16:18:18.967Z,11.50
2019-04-07T16:20:48.386Z,11.50
2019-04-07T16:23:18.472Z,11.60
2019-04-07T16:25:47.528Z,11.50
2019-04-07T16:28:16.288Z,11.50
2019-04-07T16:30:47.843Z,11.60
2019-04-07T16:33:15.261Z,11.50
2019-04-07T16:35:46.958Z,11.50
2019-04-07T16:38:14.202Z,11.60
2019-04-07T16:40:43.444Z,11.60
2019-04-07T16:43:16.107Z,11.50
2019-04-07T16:45:44.151Z,11.60
2019-04-07T16:48:12.858Z,11.60
2019-04-07T16:50:41.818Z,11.60
2019-04-07T16:53:10.736Z,11.60
2019-04-07T16:55:41.620Z,11.50
2019-04-07T16:58:11.542Z,11.50
2019-04-07T17:00:40.345Z,11.50
2019-04-07T17:03:09.857Z,11.50
2019-04-07T17:05:39.563Z,11.50
2019-04-07T17:08:08.662Z,11.60
2019-04-07T17:10:37.378Z,11.60
2019-04-07T17:13:17.769Z,11.60
2019-04-07T17:15:39.441Z,11.60
2019-04-07T17:18:09.675Z,11.60
2019-04-07T17:20:38.526Z,11.60
2019-04-07T17:23:07.221Z,11.50
2019-04-07T17:25:36.015Z,11.40
2019-04-07T17:28:06.047Z,11.40
2019-04-07T17:30:36.027Z,11.40
2019-04-07T17:33:06.217Z,11.30
2019-04-07T17:35:35.834Z,11.30
2019-04-07T17:38:06.921Z,11.20
2019-04-07T17:40:37.625Z,11.30
2019-04-07T17:43:12.541Z,11.30
2019-04-07T17:45:52.055Z,11.10
2019-04-07T17:48:41.047Z,11.10
2019-04-07T17:51:24.977Z,11.00
2019-04-07T17:54:04.691Z,11.00
2019-04-07T17:56:41.648Z,10.90
2019-04-07T17:59:15.501Z,10.90
2019-04-07T18:01:56.737Z,10.90
2019-04-07T18:04:46.018Z,10.90
2019-04-07T18:07:14.828Z,10.90
2019-04-07T18:09:44.967Z,10.80
2019-04-07T18:12:21.800Z,10.70
2019-04-07T18:15:00.694Z,10.70
2019-04-07T18:17:48.529Z,10.70
2019-04-07T18:20:33.788Z,10.60
2019-04-07T18:23:12.760Z,10.60
2019-04-07T18:25:45.895Z,10.60
2019-04-07T18:28:26.081Z,10.60
2019-04-07T18:30:57.329Z,10.50
2019-04-07T18:33:43.608Z,10.50
2019-04-07T18:36:13.691Z,10.40
2019-04-07T18:38:47.000Z,10.40
2019-04-07T18:41:21.887Z,10.40
2019-04-07T18:44:02.387Z,10.30
2019-04-07T18:46:38.297Z,10.30
2019-04-07T18:49:08.452Z,10.30
2019-04-07T18:51:46.505Z,10.40
2019-04-07T18:54:13.083Z,10.30
2019-04-07T18:56:44.086Z,10.30
2019-04-07T18:59:29.851Z,10.20
2019-04-07T19:02:13.827Z,10.30
2019-04-07T19:04:41.364Z,10.40
2019-04-07T19:07:16.703Z,10.30
2019-04-07T19:10:04.971Z,10.30
2019-04-07T19:12:43.169Z,10.40
2019-04-07T19:15:13.614Z,10.30
2019-04-07T19:17:43.756Z,10.30
2019-04-07T19:23:58.528Z,10.30
2019-04-07T19:26:31.702Z,10.30
2019-04-07T19:29:08.573Z,10.30
2019-04-07T19:31:36.375Z,10.30
2019-04-07T19:34:23.638Z,10.20
2019-04-07T19:36:59.779Z,10.20
2019-04-07T19:39:32.932Z,10.20
2019-04-07T19:42:07.116Z,10.20
2019-04-07T19:44:41.291Z,10.10
2019-04-07T19:47:09.569Z,10.00
2019-04-07T19:49:39.653Z,10.10
2019-04-07T19:52:21.765Z,10.10
2019-04-07T19:54:52.842Z,10.10
2019-04-07T19:57:50.812Z,10.10
2019-04-07T20:00:26.008Z,10.00
2019-04-07T20:02:59.484Z,10.00
2019-04-07T20:05:44.434Z,10.00
2019-04-07T20:08:20.216Z,10.00
2019-04-07T20:10:53.612Z,10.00
2019-04-07T20:13:39.553Z,9.90
2019-04-07T20:16:24.325Z,9.90
2019-04-07T20:19:06.584Z,9.90
2019-04-07T20:21:55.204Z,9.80
2019-04-07T20:24:46.426Z,9.70
2019-04-07T20:27:32.860Z,9.70
2019-04-07T20:30:03.085Z,9.70
2019-04-07T20:32:39.099Z,9.70
2019-04-07T20:35:15.984Z,9.70
2019-04-07T20:38:03.447Z,9.70
2019-04-07T20:40:39.717Z,9.60
2019-04-07T20:43:10.104Z,9.60
2019-04-07T20:45:55.877Z,9.50
2019-04-07T20:48:36.147Z,9.50
2019-04-07T20:51:06.984Z,9.50
2019-04-07T20:53:42.983Z,9.50
2019-04-07T20:56:16.557Z,9.50
2019-04-07T20:58:53.805Z,9.40
2019-04-07T21:01:35.387Z,9.40
2019-04-07T21:04:21.669Z,9.40
2019-04-07T21:06:52.078Z,9.30
2019-04-07T21:09:22.232Z,9.40
2019-04-07T21:11:54.803Z,9.40
2019-04-07T21:14:28.113Z,9.40
2019-04-07T21:17:15.336Z,9.40
2019-04-07T21:20:02.000Z,9.40
2019-04-07T21:22:38.963Z,9.50
2019-04-07T21:25:09.384Z,9.40
2019-04-07T21:27:44.008Z,9.40
2019-04-07T21:30:20.712Z,9.40
2019-04-07T21:33:02.817Z,9.40
2019-04-07T21:35:36.640Z,9.40
2019-04-07T21:38:24.436Z,9.40
2019-04-07T21:40:57.798Z,9.40
2019-04-07T21:43:36.846Z,9.30
2019-04-07T21:46:23.997Z,9.30
2019-04-07T21:48:55.058Z,9.20
2019-04-07T21:51:31.129Z,9.30
2019-04-07T21:54:04.098Z,9.30
2019-04-07T21:56:43.183Z,9.30
2019-04-07T21:59:20.031Z,9.20
2019-04-07T22:02:11.618Z,9.20
2019-04-07T22:04:56.829Z,9.20
2019-04-07T22:07:35.532Z,9.20
2019-04-07T22:10:07.934Z,9.20
2019-04-07T22:12:36.455Z,9.30
2019-04-07T22:15:11.688Z,9.20
2019-04-07T22:17:38.333Z,9.20
2019-04-07T22:20:08.531Z,9.20
2019-04-07T22:22:37.075Z,9.20
2019-04-07T22:25:09.810Z,9.20
2019-04-07T22:27:38.942Z,9.30
2019-04-07T22:30:11.267Z,9.20
2019-04-07T22:32:45.641Z,9.10
2019-04-07T22:35:14.770Z,9.20
2019-04-07T22:37:44.084Z,9.20
2019-04-07T22:40:21.283Z,9.10
2019-04-07T22:42:50.129Z,9.10
2019-04-07T22:45:19.126Z,9.10
2019-04-07T22:47:51.481Z,9.10
2019-04-07T22:50:17.988Z,9.10
2019-04-07T22:52:49.263Z,9.10
2019-04-07T22:55:16.813Z,9.10
2019-04-07T22:57:45.363Z,9.10
2019-04-07T23:00:21.869Z,9.10
2019-04-07T23:02:50.407Z,9.00
2019-04-07T23:05:19.108Z,8.90
2019-04-07T23:07:48.096Z,9.00
2019-04-07T23:10:17.705Z,9.00
2019-04-07T23:12:46.328Z,9.00
2019-04-07T23:15:15.013Z,8.90
2019-04-07T23:17:43.486Z,8.90
2019-04-07T23:20:13.380Z,8.90
2019-04-07T23:22:42.412Z,8.90
2019-04-07T23:25:11.824Z,8.90
2019-04-07T23:27:40.709Z,8.90
2019-04-07T23:30:16.148Z,8.90
2019-04-07T23:32:44.671Z,8.90
2019-04-07T23:35:13.254Z,8.90
2019-04-07T23:37:41.711Z,8.90
2019-04-07T23:40:10.657Z,8.90
2019-04-07T23:42:39.144Z,8.90
2019-04-07T23:45:08.210Z,8.90
2019-04-07T23:47:36.845Z,8.90
2019-04-07T23:50:07.601Z,8.90
2019-04-07T23:52:36.087Z,8.80
2019-04-07T23:55:04.600Z,8.90
2019-04-07T23:57:33.048Z,8.90
